createdAt,value
2023-03-05T00:00:33.263Z,1017.99
2023-03-05T00:01:33.534Z,1017.96
2023-03-05T00:02:33.321Z,1017.92
2023-03-05T00:03:33.272Z,1017.95
2023-03-05T00:04:33.280Z,1017.95
2023-03-05T00:05:33.246Z,1017.93
2023-03-05T00:06:33.288Z,1017.9
2023-03-05T00:07:33.252Z,1017.92
2023-03-05T00:08:33.256Z,1017.92
2023-03-05T00:09:34.972Z,1017.93
2023-03-05T00:10:33.262Z,1017.92
2023-03-05T00:11:33.254Z,1017.92
2023-03-05T00:12:33.244Z,1017.87
2023-03-05T00:13:33.243Z,1017.89
2023-03-05T00:14:33.265Z,1017.89
2023-03-05T00:15:33.245Z,1017.87
2023-03-05T00:16:33.245Z,1017.82
2023-03-05T00:17:33.237Z,1017.88
2023-03-05T00:18:33.260Z,1017.86
2023-03-05T00:19:33.254Z,1017.85
2023-03-05T00:20:33.240Z,1017.84
2023-03-05T00:21:33.268Z,1017.83
2023-03-05T00:22:33.235Z,1017.82
2023-03-05T00:23:33.250Z,1017.87
2023-03-05T00:24:33.254Z,1017.85
2023-03-05T00:25:33.246Z,1017.83
2023-03-05T00:26:33.253Z,1017.83
2023-03-05T00:27:33.275Z,1017.78
2023-03-05T00:28:33.240Z,1017.8
2023-03-05T00:29:33.279Z,1017.79
2023-03-05T00:30:33.242Z,1017.79
2023-03-05T00:31:33.254Z,1017.77
2023-03-05T00:32:33.353Z,1017.76
2023-03-05T00:33:33.238Z,1017.69
2023-03-05T00:34:33.271Z,1017.68
2023-03-05T00:35:35.112Z,1017.67
2023-03-05T00:36:33.254Z,1017.65
2023-03-05T00:37:33.235Z,1017.62
2023-03-05T00:38:33.267Z,1017.69
2023-03-05T00:39:33.261Z,1017.68
2023-03-05T00:40:33.321Z,1017.64
2023-03-05T00:41:33.247Z,1017.58
2023-03-05T00:42:33.246Z,1017.59
2023-03-05T00:43:33.253Z,1017.66
2023-03-05T00:44:33.256Z,1017.61
2023-03-05T00:45:33.242Z,1017.56
2023-03-05T00:46:33.325Z,1017.55
2023-03-05T00:47:33.243Z,1017.49
2023-03-05T00:48:33.246Z,1017.56
2023-03-05T00:49:33.250Z,1017.55
2023-03-05T00:50:33.267Z,1017.54
2023-03-05T00:51:33.259Z,1017.54
2023-03-05T00:52:33.251Z,1017.5
2023-03-05T00:53:33.268Z,1017.52
2023-03-05T00:54:33.281Z,1017.45
2023-03-05T00:55:33.243Z,1017.43
2023-03-05T00:56:33.245Z,1017.42
2023-03-05T00:57:33.242Z,1017.46
2023-03-05T00:58:33.257Z,1017.41
2023-03-05T00:59:33.265Z,1017.36
2023-03-05T01:00:33.241Z,1017.36
2023-03-05T01:01:33.344Z,1017.32
2023-03-05T01:02:34.762Z,1017.35
2023-03-05T01:03:33.244Z,1017.36
2023-03-05T01:04:33.251Z,1017.35
2023-03-05T01:05:33.299Z,1017.36
2023-03-05T01:06:33.244Z,1017.33
2023-03-05T01:07:33.233Z,1017.31
2023-03-05T01:08:33.232Z,1017.31
2023-03-05T01:09:33.261Z,1017.24
2023-03-05T01:10:33.232Z,1017.35
2023-03-05T01:11:33.222Z,1017.25
2023-03-05T01:12:33.234Z,1017.29
2023-03-05T01:13:33.254Z,1017.23
2023-03-05T01:14:33.254Z,1017.27
2023-03-05T01:15:33.259Z,1017.24
2023-03-05T01:16:33.347Z,1017.19
2023-03-05T01:17:33.227Z,1017.23
2023-03-05T01:18:33.243Z,1017.19
2023-03-05T01:19:33.251Z,1017.23
2023-03-05T01:20:33.221Z,1017.17
2023-03-05T01:21:33.236Z,1017.19
2023-03-05T01:22:33.221Z,1017.16
2023-03-05T01:23:33.242Z,1017.12
2023-03-05T01:24:33.258Z,1017.15
2023-03-05T01:25:33.205Z,1017.15
2023-03-05T01:26:33.234Z,1017.13
2023-03-05T01:27:33.222Z,1017.12
2023-03-05T01:28:33.226Z,1017.05
2023-03-05T01:29:33.223Z,1017.07
2023-03-05T01:30:33.212Z,1017.06
2023-03-05T01:31:33.393Z,1017.09
2023-03-05T01:32:34.729Z,1017.08
2023-03-05T01:33:33.221Z,1017.09
2023-03-05T01:34:33.225Z,1017.09
2023-03-05T01:35:33.253Z,1017.09
2023-03-05T01:36:33.231Z,1017.08
2023-03-05T01:37:33.210Z,1017.07
2023-03-05T01:38:33.226Z,1017.01
2023-03-05T01:39:33.233Z,1017.08
2023-03-05T01:40:33.226Z,1017.01
2023-03-05T01:41:33.219Z,1017.02
2023-03-05T01:42:33.233Z,1017.07
2023-03-05T01:43:33.223Z,1017.03
2023-03-05T01:44:33.231Z,1017.05
2023-03-05T01:45:33.350Z,1016.96
2023-03-05T01:46:33.207Z,1017
2023-03-05T01:47:33.221Z,1016.99
2023-03-05T01:48:33.208Z,1016.96
2023-03-05T01:49:33.250Z,1017
2023-03-05T01:50:33.220Z,1016.94
2023-03-05T01:51:33.233Z,1016.97
2023-03-05T01:52:33.220Z,1016.98
2023-03-05T01:53:33.223Z,1016.99
2023-03-05T01:54:33.233Z,1016.93
2023-03-05T01:55:33.219Z,1016.92
2023-03-05T01:56:33.221Z,1016.9
2023-03-05T01:57:33.221Z,1016.91
2023-03-05T01:58:33.219Z,1016.88
2023-03-05T01:59:33.233Z,1016.92
2023-03-05T02:00:33.216Z,1016.82
2023-03-05T02:01:33.269Z,1016.89
2023-03-05T02:02:33.216Z,1016.84
2023-03-05T02:03:33.262Z,1016.84
2023-03-05T02:04:33.235Z,1016.84
2023-03-05T02:05:33.228Z,1016.85
2023-03-05T02:06:33.252Z,1016.84
2023-03-05T02:07:33.218Z,1016.82
2023-03-05T02:08:33.222Z,1016.82
2023-03-05T02:09:33.238Z,1016.8
2023-03-05T02:10:33.273Z,1016.8
2023-03-05T02:11:33.223Z,1016.79
2023-03-05T02:12:33.223Z,1016.77
2023-03-05T02:13:33.212Z,1016.73
2023-03-05T02:14:33.247Z,1016.72
2023-03-05T02:15:33.228Z,1016.76
2023-03-05T02:16:33.275Z,1016.72
2023-03-05T02:17:33.223Z,1016.74
2023-03-05T02:18:33.228Z,1016.77
2023-03-05T02:19:33.228Z,1016.71
2023-03-05T02:20:33.217Z,1016.72
2023-03-05T02:21:33.229Z,1016.69
2023-03-05T02:22:33.224Z,1016.67
2023-03-05T02:23:33.218Z,1016.7
2023-03-05T02:24:33.243Z,1016.69
2023-03-05T02:25:33.215Z,1016.65
2023-03-05T02:26:33.223Z,1016.65
2023-03-05T02:27:33.226Z,1016.65
2023-03-05T02:28:33.241Z,1016.67
2023-03-05T02:29:33.255Z,1016.68
2023-03-05T02:30:33.219Z,1016.67
2023-03-05T02:31:33.298Z,1016.62
2023-03-05T02:32:33.284Z,1016.69
2023-03-05T02:33:33.223Z,1016.67
2023-03-05T02:34:33.231Z,1016.61
2023-03-05T02:35:33.248Z,1016.65
2023-03-05T02:36:33.235Z,1016.6
2023-03-05T02:37:33.229Z,1016.54
2023-03-05T02:38:33.222Z,1016.6
2023-03-05T02:39:33.244Z,1016.56
2023-03-05T02:40:33.223Z,1016.55
2023-03-05T02:41:33.239Z,1016.52
2023-03-05T02:42:33.224Z,1016.52
2023-03-05T02:43:33.224Z,1016.52
2023-03-05T02:44:33.281Z,1016.45
2023-03-05T02:45:33.278Z,1016.51
2023-03-05T02:46:33.253Z,1016.49
2023-03-05T02:47:33.230Z,1016.49
2023-03-05T02:48:33.237Z,1016.5
2023-03-05T02:49:33.247Z,1016.52
2023-03-05T02:50:33.231Z,1016.47
2023-03-05T02:51:33.241Z,1016.43
2023-03-05T02:52:33.217Z,1016.41
2023-03-05T02:53:33.236Z,1016.4
2023-03-05T02:54:33.249Z,1016.4
2023-03-05T02:55:33.229Z,1016.39
2023-03-05T02:56:33.225Z,1016.39
2023-03-05T02:57:33.225Z,1016.39
2023-03-05T02:58:33.253Z,1016.39
2023-03-05T02:59:33.298Z,1016.43
2023-03-05T03:00:33.229Z,1016.42
2023-03-05T03:01:33.300Z,1016.35
2023-03-05T03:02:33.247Z,1016.37
2023-03-05T03:03:33.330Z,1016.35
2023-03-05T03:04:33.239Z,1016.41
2023-03-05T03:05:33.228Z,1016.39
2023-03-05T03:06:33.378Z,1016.36
2023-03-05T03:07:33.230Z,1016.36
2023-03-05T03:08:33.229Z,1016.36
2023-03-05T03:09:33.240Z,1016.38
2023-03-05T03:10:33.240Z,1016.38
2023-03-05T03:11:33.230Z,1016.32
2023-03-05T03:12:33.220Z,1016.33
2023-03-05T03:13:33.227Z,1016.3
2023-03-05T03:14:33.253Z,1016.35
2023-03-05T03:15:33.231Z,1016.31
2023-03-05T03:16:33.252Z,1016.32
2023-03-05T03:17:33.222Z,1016.26
2023-03-05T03:18:33.230Z,1016.27
2023-03-05T03:19:33.238Z,1016.29
2023-03-05T03:20:33.234Z,1016.29
2023-03-05T03:21:33.270Z,1016.28
2023-03-05T03:22:33.259Z,1016.18
2023-03-05T03:23:33.239Z,1016.23
2023-03-05T03:24:33.253Z,1016.23
2023-03-05T03:25:33.235Z,1016.15
2023-03-05T03:26:33.250Z,1016.17
2023-03-05T03:27:33.233Z,1016.24
2023-03-05T03:28:33.224Z,1016.21
2023-03-05T03:29:33.242Z,1016.16
2023-03-05T03:30:33.279Z,1016.18
2023-03-05T03:31:33.226Z,1016.19
2023-03-05T03:32:33.274Z,1016.21
2023-03-05T03:33:33.238Z,1016.2
2023-03-05T03:34:33.296Z,1016.25
2023-03-05T03:35:33.320Z,1016.14
2023-03-05T03:36:33.245Z,1016.16
2023-03-05T03:37:33.230Z,1016.15
2023-03-05T03:38:33.255Z,1016.16
2023-03-05T03:39:33.251Z,1016.15
2023-03-05T03:40:33.254Z,1016.1
2023-03-05T03:41:33.233Z,1016.17
2023-03-05T03:42:33.248Z,1016.22
2023-03-05T03:43:33.230Z,1016.1
2023-03-05T03:44:33.244Z,1016.18
2023-03-05T03:45:33.231Z,1016.16
2023-03-05T03:46:33.324Z,1016
2023-03-05T03:47:33.229Z,1016.08
2023-03-05T03:48:33.237Z,1016.14
2023-03-05T03:49:33.240Z,1016.08
2023-03-05T03:50:33.228Z,1016.15
2023-03-05T03:51:33.245Z,1016.21
2023-03-05T03:52:33.238Z,1016.14
2023-03-05T03:53:33.229Z,1016.1
2023-03-05T03:54:33.246Z,1016.07
2023-03-05T03:55:33.235Z,1016.15
2023-03-05T03:56:33.248Z,1016.1
2023-03-05T03:57:33.232Z,1016.1
2023-03-05T03:58:33.233Z,1016.16
2023-03-05T03:59:33.254Z,1016.14
2023-03-05T04:00:33.232Z,1016.16
2023-03-05T04:01:33.221Z,1016.14
2023-03-05T04:02:33.291Z,1016.14
2023-03-05T04:03:33.239Z,1016.21
2023-03-05T04:04:33.313Z,1016.2
2023-03-05T04:05:33.235Z,1016.14
2023-03-05T04:06:33.253Z,1016.14
2023-03-05T04:07:33.232Z,1016.1
2023-03-05T04:08:33.221Z,1016.1
2023-03-05T04:09:33.274Z,1016.16
2023-03-05T04:10:33.237Z,1016.17
2023-03-05T04:11:33.241Z,1016.16
2023-03-05T04:12:33.230Z,1016.18
2023-03-05T04:13:33.237Z,1016.09
2023-03-05T04:14:33.270Z,1016.03
2023-03-05T04:15:33.236Z,1016.04
2023-03-05T04:16:33.234Z,1016.07
2023-03-05T04:17:33.245Z,1015.97
2023-03-05T04:18:33.236Z,1016.05
2023-03-05T04:19:33.241Z,1016.06
2023-03-05T04:20:33.220Z,1016.07
2023-03-05T04:21:33.245Z,1015.97
2023-03-05T04:22:33.233Z,1016
2023-03-05T04:23:33.225Z,1016.03
2023-03-05T04:24:33.240Z,1016.06
2023-03-05T04:25:33.234Z,1016.06
2023-03-05T04:26:33.254Z,1016.05
2023-03-05T04:27:33.231Z,1015.99
2023-03-05T04:28:33.244Z,1016.07
2023-03-05T04:29:33.246Z,1016.07
2023-03-05T04:30:33.231Z,1016.03
2023-03-05T04:31:33.346Z,1016.1
2023-03-05T04:32:33.331Z,1016.05
2023-03-05T04:33:33.232Z,1016
2023-03-05T04:34:33.419Z,1016.04
2023-03-05T04:35:33.283Z,1015.99
2023-03-05T04:36:33.325Z,1016.01
2023-03-05T04:37:33.229Z,1016.03
2023-03-05T04:38:33.226Z,1016.01
2023-03-05T04:39:33.236Z,1016
2023-03-05T04:40:33.225Z,1015.95
2023-03-05T04:41:33.224Z,1015.99
2023-03-05T04:42:33.230Z,1015.99
2023-03-05T04:43:33.242Z,1016
2023-03-05T04:44:33.235Z,1015.98
2023-03-05T04:45:33.228Z,1015.97
2023-03-05T04:46:33.285Z,1016.02
2023-03-05T04:47:33.225Z,1015.95
2023-03-05T04:48:33.232Z,1015.92
2023-03-05T04:49:33.237Z,1015.98
2023-03-05T04:50:33.225Z,1015.95
2023-03-05T04:51:33.250Z,1016
2023-03-05T04:52:33.222Z,1016.02
2023-03-05T04:53:33.226Z,1015.99
2023-03-05T04:54:33.234Z,1015.95
2023-03-05T04:55:33.224Z,1016.05
2023-03-05T04:56:33.224Z,1016.01
2023-03-05T04:57:33.227Z,1016.05
2023-03-05T04:58:33.221Z,1015.99
2023-03-05T04:59:33.233Z,1015.99
2023-03-05T05:00:33.212Z,1015.98
2023-03-05T05:01:33.242Z,1015.92
2023-03-05T05:02:33.269Z,1015.9
2023-03-05T05:03:33.238Z,1015.93
2023-03-05T05:04:33.275Z,1015.92
2023-03-05T05:05:33.225Z,1015.91
2023-03-05T05:06:33.253Z,1015.89
2023-03-05T05:07:33.222Z,1015.9
2023-03-05T05:08:33.227Z,1015.9
2023-03-05T05:09:33.240Z,1015.77
2023-03-05T05:10:33.221Z,1015.66
2023-03-05T05:11:33.217Z,1015.73
2023-03-05T05:12:33.218Z,1015.8
2023-03-05T05:13:33.226Z,1015.82
2023-03-05T05:14:33.247Z,1015.74
2023-03-05T05:15:33.232Z,1015.78
2023-03-05T05:16:33.356Z,1015.74
2023-03-05T05:17:33.231Z,1015.73
2023-03-05T05:18:33.230Z,1015.72
2023-03-05T05:19:33.349Z,1015.76
2023-03-05T05:20:33.213Z,1015.76
2023-03-05T05:21:33.246Z,1015.76
2023-03-05T05:22:33.228Z,1015.75
2023-03-05T05:23:33.211Z,1015.79
2023-03-05T05:24:33.239Z,1015.81
2023-03-05T05:25:33.229Z,1015.79
2023-03-05T05:26:33.232Z,1015.81
2023-03-05T05:27:33.230Z,1015.76
2023-03-05T05:28:33.222Z,1015.77
2023-03-05T05:29:33.245Z,1015.78
2023-03-05T05:30:33.220Z,1015.73
2023-03-05T05:31:33.279Z,1015.79
2023-03-05T05:32:33.333Z,1015.78
2023-03-05T05:33:33.225Z,1015.73
2023-03-05T05:34:33.243Z,1015.77
2023-03-05T05:35:33.274Z,1015.72
2023-03-05T05:36:33.250Z,1015.72
2023-03-05T05:37:33.232Z,1015.74
2023-03-05T05:38:33.222Z,1015.82
2023-03-05T05:39:33.237Z,1015.71
2023-03-05T05:40:33.221Z,1015.79
2023-03-05T05:41:33.237Z,1015.7
2023-03-05T05:42:33.240Z,1015.72
2023-03-05T05:43:33.237Z,1015.8
2023-03-05T05:44:33.247Z,1015.77
2023-03-05T05:45:33.407Z,1015.76
2023-03-05T05:46:33.327Z,1015.83
2023-03-05T05:47:33.225Z,1015.77
2023-03-05T05:48:33.239Z,1015.74
2023-03-05T05:49:33.260Z,1015.77
2023-03-05T05:50:33.233Z,1015.77
2023-03-05T05:51:33.245Z,1015.76
2023-03-05T05:52:33.243Z,1015.7
2023-03-05T05:53:33.225Z,1015.75
2023-03-05T05:54:33.244Z,1015.81
2023-03-05T05:55:33.242Z,1015.78
2023-03-05T05:56:33.234Z,1015.79
2023-03-05T05:57:33.244Z,1015.81
2023-03-05T05:58:33.232Z,1015.79
2023-03-05T05:59:33.251Z,1015.78
2023-03-05T06:00:33.253Z,1015.8
2023-03-05T06:01:33.269Z,1015.82
2023-03-05T06:02:33.239Z,1015.85
2023-03-05T06:03:33.236Z,1015.93
2023-03-05T06:04:33.243Z,1015.92
2023-03-05T06:05:33.237Z,1015.92
2023-03-05T06:06:33.255Z,1015.95
2023-03-05T06:07:33.225Z,1015.9
2023-03-05T06:08:33.225Z,1015.9
2023-03-05T06:09:33.254Z,1015.95
2023-03-05T06:10:33.240Z,1016
2023-03-05T06:11:33.240Z,1015.95
2023-03-05T06:12:33.240Z,1015.95
2023-03-05T06:13:33.237Z,1015.89
2023-03-05T06:14:33.254Z,1015.89
2023-03-05T06:15:33.246Z,1016.02
2023-03-05T06:16:33.292Z,1015.93
2023-03-05T06:17:33.238Z,1015.83
2023-03-05T06:18:33.234Z,1015.9
2023-03-05T06:19:33.237Z,1015.95
2023-03-05T06:20:33.237Z,1015.92
2023-03-05T06:21:33.282Z,1015.95
2023-03-05T06:22:33.243Z,1015.96
2023-03-05T06:23:33.234Z,1015.93
2023-03-05T06:24:33.255Z,1015.9
2023-03-05T06:25:33.240Z,1015.94
2023-03-05T06:26:33.240Z,1015.94
2023-03-05T06:27:33.232Z,1015.97
2023-03-05T06:28:33.226Z,1015.92
2023-03-05T06:29:33.247Z,1015.98
2023-03-05T06:30:33.314Z,1015.9
2023-03-05T06:31:34.273Z,1015.95
2023-03-05T06:32:33.296Z,1015.91
2023-03-05T06:33:33.221Z,1015.97
2023-03-05T06:34:33.244Z,1015.96
2023-03-05T06:35:33.248Z,1015.94
2023-03-05T06:36:33.249Z,1015.93
2023-03-05T06:37:33.232Z,1015.91
2023-03-05T06:38:33.228Z,1015.93
2023-03-05T06:39:33.248Z,1015.9
2023-03-05T06:40:33.251Z,1015.84
2023-03-05T06:41:33.227Z,1015.84
2023-03-05T06:42:33.223Z,1015.8
2023-03-05T06:43:33.237Z,1015.82
2023-03-05T06:44:33.242Z,1015.83
2023-03-05T06:45:33.228Z,1015.8
2023-03-05T06:46:33.245Z,1015.87
2023-03-05T06:47:33.235Z,1015.87
2023-03-05T06:48:33.244Z,1015.81
2023-03-05T06:49:33.265Z,1015.86
2023-03-05T06:50:33.229Z,1015.89
2023-03-05T06:51:33.250Z,1015.89
2023-03-05T06:52:33.242Z,1015.9
2023-03-05T06:53:33.230Z,1015.91
2023-03-05T06:54:33.240Z,1015.87
2023-03-05T06:55:33.261Z,1015.83
2023-03-05T06:56:33.264Z,1015.84
2023-03-05T06:57:33.231Z,1015.9
2023-03-05T06:58:33.233Z,1015.89
2023-03-05T06:59:33.240Z,1015.85
2023-03-05T07:00:33.235Z,1015.76
2023-03-05T07:01:33.312Z,1015.8
2023-03-05T07:02:33.296Z,1015.85
2023-03-05T07:03:33.232Z,1015.86
2023-03-05T07:04:33.246Z,1015.85
2023-03-05T07:05:34.217Z,1015.94
2023-03-05T07:06:33.243Z,1015.87
2023-03-05T07:07:33.230Z,1015.84
2023-03-05T07:08:33.230Z,1015.84
2023-03-05T07:09:33.240Z,1015.81
2023-03-05T07:10:33.240Z,1015.87
2023-03-05T07:11:33.229Z,1015.86
2023-03-05T07:12:33.256Z,1015.93
2023-03-05T07:13:33.233Z,1015.82
2023-03-05T07:14:33.253Z,1015.86
2023-03-05T07:15:33.328Z,1015.84
2023-03-05T07:16:33.257Z,1015.82
2023-03-05T07:17:33.218Z,1015.84
2023-03-05T07:18:33.232Z,1015.85
2023-03-05T07:19:33.249Z,1015.82
2023-03-05T07:20:33.257Z,1015.82
2023-03-05T07:21:33.244Z,1015.84
2023-03-05T07:22:33.237Z,1015.84
2023-03-05T07:23:33.248Z,1015.82
2023-03-05T07:24:33.249Z,1015.82
2023-03-05T07:25:33.232Z,1015.84
2023-03-05T07:26:33.265Z,1015.85
2023-03-05T07:27:33.231Z,1015.8
2023-03-05T07:28:33.238Z,1015.81
2023-03-05T07:29:33.265Z,1015.79
2023-03-05T07:30:33.231Z,1015.74
2023-03-05T07:31:33.226Z,1015.78
2023-03-05T07:32:33.289Z,1015.83
2023-03-05T07:33:33.235Z,1015.8
2023-03-05T07:34:33.250Z,1015.76
2023-03-05T07:35:33.304Z,1015.79
2023-03-05T07:36:33.497Z,1015.67
2023-03-05T07:37:33.247Z,1015.72
2023-03-05T07:38:33.234Z,1015.75
2023-03-05T07:39:33.263Z,1015.73
2023-03-05T07:40:33.224Z,1015.74
2023-03-05T07:41:33.232Z,1015.72
2023-03-05T07:42:33.312Z,1015.62
2023-03-05T07:43:33.239Z,1015.66
2023-03-05T07:44:33.241Z,1015.68
2023-03-05T07:45:33.231Z,1015.57
2023-03-05T07:46:33.331Z,1015.57
2023-03-05T07:47:33.229Z,1015.59
2023-03-05T07:48:33.234Z,1015.54
2023-03-05T07:49:33.252Z,1015.55
2023-03-05T07:50:33.230Z,1015.54
2023-03-05T07:51:33.260Z,1015.54
2023-03-05T07:52:33.234Z,1015.51
2023-03-05T07:53:33.235Z,1015.57
2023-03-05T07:54:33.253Z,1015.59
2023-03-05T07:55:33.229Z,1015.54
2023-03-05T07:56:33.238Z,1015.54
2023-03-05T07:57:33.233Z,1015.49
2023-03-05T07:58:33.229Z,1015.5
2023-03-05T07:59:33.248Z,1015.48
2023-03-05T08:00:33.239Z,1015.46
2023-03-05T08:01:33.237Z,1015.47
2023-03-05T08:02:33.396Z,1015.47
2023-03-05T08:03:33.239Z,1015.46
2023-03-05T08:04:33.322Z,1015.49
2023-03-05T08:05:33.244Z,1015.47
2023-03-05T08:06:33.293Z,1015.44
2023-03-05T08:07:33.230Z,1015.49
2023-03-05T08:08:33.239Z,1015.49
2023-03-05T08:09:33.272Z,1015.48
2023-03-05T08:10:33.237Z,1015.59
2023-03-05T08:11:33.241Z,1015.52
2023-03-05T08:12:33.245Z,1015.52
2023-03-05T08:13:33.237Z,1015.54
2023-03-05T08:14:33.245Z,1015.56
2023-03-05T08:15:33.394Z,1015.61
2023-03-05T08:16:33.234Z,1015.54
2023-03-05T08:17:33.223Z,1015.67
2023-03-05T08:18:33.244Z,1015.63
2023-03-05T08:19:33.262Z,1015.58
2023-03-05T08:20:33.238Z,1015.61
2023-03-05T08:21:33.250Z,1015.58
2023-03-05T08:22:33.230Z,1015.63
2023-03-05T08:23:33.239Z,1015.68
2023-03-05T08:24:33.236Z,1015.56
2023-03-05T08:25:33.233Z,1015.63
2023-03-05T08:26:33.228Z,1015.64
2023-03-05T08:27:33.238Z,1015.62
2023-03-05T08:28:34.408Z,1015.62
2023-03-05T08:29:33.244Z,1015.58
2023-03-05T08:30:33.234Z,1015.55
2023-03-05T08:31:33.314Z,1015.6
2023-03-05T08:32:33.297Z,1015.56
2023-03-05T08:33:35.264Z,1015.59
2023-03-05T08:34:33.244Z,1015.51
2023-03-05T08:35:33.305Z,1015.51
2023-03-05T08:36:33.242Z,1015.54
2023-03-05T08:37:33.229Z,1015.52
2023-03-05T08:38:33.241Z,1015.49
2023-03-05T08:39:33.245Z,1015.5
2023-03-05T08:40:33.235Z,1015.48
2023-03-05T08:41:33.236Z,1015.38
2023-03-05T08:42:33.235Z,1015.45
2023-03-05T08:43:33.234Z,1015.48
2023-03-05T08:44:33.237Z,1015.46
2023-03-05T08:45:33.216Z,1015.43
2023-03-05T08:46:33.273Z,1015.49
2023-03-05T08:47:33.236Z,1015.43
2023-03-05T08:48:33.233Z,1015.52
2023-03-05T08:49:33.269Z,1015.45
2023-03-05T08:50:33.242Z,1015.46
2023-03-05T08:51:33.243Z,1015.47
2023-03-05T08:52:33.244Z,1015.47
2023-03-05T08:53:33.223Z,1015.39
2023-03-05T08:54:33.250Z,1015.31
2023-03-05T08:55:33.235Z,1015.39
2023-03-05T08:56:33.243Z,1015.39
2023-03-05T08:57:33.221Z,1015.33
2023-03-05T08:58:33.229Z,1015.35
2023-03-05T08:59:33.235Z,1015.37
2023-03-05T09:00:33.233Z,1015.33
2023-03-05T09:01:33.290Z,1015.27
2023-03-05T09:02:33.293Z,1015.3
2023-03-05T09:03:33.242Z,1015.29
2023-03-05T09:04:33.238Z,1015.27
2023-03-05T09:05:33.231Z,1015.23
2023-03-05T09:06:33.253Z,1015.26
2023-03-05T09:07:33.241Z,1015.37
2023-03-05T09:08:33.246Z,1015.37
2023-03-05T09:09:33.243Z,1015.31
2023-03-05T09:10:33.242Z,1015.33
2023-03-05T09:11:33.231Z,1015.22
2023-03-05T09:12:33.237Z,1015.38
2023-03-05T09:13:33.296Z,1015.15
2023-03-05T09:14:33.241Z,1015.2
2023-03-05T09:15:33.238Z,1015.3
2023-03-05T09:16:33.286Z,1015.25
2023-03-05T09:17:33.236Z,1015.21
2023-03-05T09:18:33.243Z,1015.22
2023-03-05T09:19:33.244Z,1015.13
2023-03-05T09:20:33.239Z,1015.17
2023-03-05T09:21:33.259Z,1015.13
2023-03-05T09:22:33.236Z,1015.12
2023-03-05T09:23:33.246Z,1015.13
2023-03-05T09:24:33.248Z,1015.12
2023-03-05T09:25:33.234Z,1015.11
2023-03-05T09:26:33.228Z,1015.17
2023-03-05T09:27:33.234Z,1015.14
2023-03-05T09:28:33.233Z,1015.14
2023-03-05T09:29:33.236Z,1015.14
2023-03-05T09:30:33.227Z,1015.14
2023-03-05T09:31:33.295Z,1015.14
2023-03-05T09:32:33.300Z,1015.14
2023-03-05T09:33:33.230Z,1015.14
2023-03-05T09:34:33.246Z,1015.14
2023-03-05T09:35:33.349Z,1015.14
2023-03-05T09:36:33.283Z,1015.14
2023-03-05T09:37:33.227Z,1015.14
2023-03-05T09:38:33.235Z,1015.14
2023-03-05T09:39:33.239Z,1015.14
2023-03-05T09:40:33.227Z,1015.14
2023-03-05T09:41:33.232Z,1015.14
2023-03-05T09:42:33.247Z,1015.14
2023-03-05T09:43:33.225Z,1015.14
2023-03-05T09:44:33.249Z,1015.14
2023-03-05T09:45:33.250Z,1015.14
2023-03-05T09:46:33.225Z,1015.14
2023-03-05T09:47:33.228Z,1015.14
2023-03-05T09:48:33.228Z,1015.14
2023-03-05T09:49:33.236Z,1015.14
2023-03-05T09:50:33.240Z,1015.14
2023-03-05T09:51:33.235Z,1015.14
2023-03-05T09:52:33.235Z,1015.14
2023-03-05T09:53:33.242Z,1015.14
2023-03-05T09:54:33.256Z,1015.14
2023-03-05T09:55:33.227Z,1015.14
2023-03-05T09:56:33.285Z,1015.14
2023-03-05T09:57:33.231Z,1015.14
2023-03-05T09:58:33.238Z,1015.14
2023-03-05T09:59:33.237Z,1015.14
2023-03-05T10:00:33.234Z,1015.14
2023-03-05T10:01:33.234Z,1015.14
2023-03-05T10:02:33.234Z,1015.14
2023-03-05T10:03:33.227Z,1015.14
2023-03-05T10:04:33.242Z,1015.14
2023-03-05T10:05:33.240Z,1015.14
2023-03-05T10:06:33.250Z,1015.14
2023-03-05T10:07:33.228Z,1015.14
2023-03-05T10:08:33.231Z,1015.14
2023-03-05T10:09:33.768Z,1015.14
2023-03-05T10:10:33.237Z,1015.14
2023-03-05T10:11:33.233Z,1015.14
2023-03-05T10:12:33.227Z,1015.14
2023-03-05T10:13:33.229Z,1015.14
2023-03-05T10:14:33.255Z,1015.14
2023-03-05T10:15:33.238Z,1015.14
2023-03-05T10:16:33.259Z,1015.14
2023-03-05T10:17:33.220Z,1015.14
2023-03-05T10:18:33.224Z,1015.14
2023-03-05T10:19:33.243Z,1015.14
2023-03-05T10:20:33.238Z,1015.14
2023-03-05T10:21:33.238Z,1015.14
2023-03-05T10:22:33.221Z,1015.14
2023-03-05T10:23:33.223Z,1015.14
2023-03-05T10:24:33.254Z,1015.14
2023-03-05T10:25:33.226Z,1015.14
2023-03-05T10:26:33.233Z,1015.14
2023-03-05T10:27:33.307Z,1015.14
2023-03-05T10:28:33.224Z,1015.14
2023-03-05T10:29:33.244Z,1015.14
2023-03-05T10:30:33.218Z,1015.14
2023-03-05T10:31:33.250Z,1015.14
2023-03-05T10:32:33.279Z,1015.14
2023-03-05T10:33:33.691Z,1015.14
2023-03-05T10:34:33.247Z,1015.14
2023-03-05T10:35:33.239Z,1015.14
2023-03-05T10:36:33.240Z,1015.14
2023-03-05T10:37:33.231Z,1015.14
2023-03-05T10:38:33.223Z,1015.14
2023-03-05T10:39:33.248Z,1015.14
2023-03-05T10:40:33.259Z,0
2023-03-05T10:41:33.225Z,0
2023-03-05T10:42:33.224Z,0
2023-03-05T10:43:33.227Z,0
2023-03-05T10:44:33.237Z,0
2023-03-05T10:45:33.304Z,0
2023-03-05T10:46:33.223Z,0
2023-03-05T10:47:33.231Z,0
2023-03-05T10:48:33.220Z,0
2023-03-05T10:49:33.235Z,0
2023-03-05T10:50:33.228Z,0
2023-03-05T10:51:33.314Z,0
2023-03-05T10:52:33.227Z,0
2023-03-05T10:53:33.219Z,0
2023-03-05T10:54:33.246Z,0
2023-03-05T10:55:33.229Z,0
2023-03-05T10:56:33.230Z,0
2023-03-05T10:57:33.225Z,0
2023-03-05T10:58:33.236Z,0
2023-03-05T10:59:33.238Z,0
2023-03-05T11:00:33.225Z,0
2023-03-05T11:01:33.336Z,0
2023-03-05T11:02:33.300Z,0
2023-03-05T11:03:33.222Z,0
2023-03-05T11:04:33.243Z,0
2023-03-05T11:05:33.219Z,0
2023-03-05T11:06:33.240Z,0
2023-03-05T11:07:33.217Z,0
2023-03-05T11:08:33.220Z,0
2023-03-05T11:09:33.303Z,0
2023-03-05T11:10:33.235Z,0
2023-03-05T11:11:33.247Z,0
2023-03-05T11:12:33.218Z,0
2023-03-05T11:14:19.848Z,0
2023-03-05T11:15:18.743Z,0
2023-03-05T11:16:20.874Z,0
2023-03-05T11:17:18.713Z,0
2023-03-05T11:18:18.718Z,0
2023-03-05T11:19:18.725Z,0
2023-03-05T11:20:18.840Z,0
2023-03-05T11:21:18.703Z,0
2023-03-05T11:22:18.725Z,0
2023-03-05T11:23:18.716Z,0
2023-03-05T11:25:10.133Z,0
2023-03-05T11:26:09.114Z,0
2023-03-05T11:27:09.092Z,0
2023-03-05T11:28:09.056Z,0
2023-03-05T11:29:09.079Z,0
2023-03-05T11:30:09.098Z,0
2023-03-05T11:31:09.112Z,0
2023-03-05T11:32:09.077Z,0
2023-03-05T11:33:10.493Z,0
2023-03-05T11:34:09.062Z,0
2023-03-05T11:35:09.073Z,0
2023-03-05T11:36:09.061Z,0
2023-03-05T11:37:09.062Z,0
2023-03-05T11:38:09.058Z,0
2023-03-05T11:39:09.057Z,0
2023-03-05T11:40:09.084Z,0
2023-03-05T11:41:09.053Z,1013.54
2023-03-05T11:42:09.061Z,1013.47
2023-03-05T11:43:09.095Z,1013.54
2023-03-05T11:44:09.062Z,1013.49
2023-03-05T11:45:09.082Z,1013.51
2023-03-05T11:46:09.086Z,1013.52
2023-03-05T11:47:09.054Z,1013.45
2023-03-05T11:48:09.053Z,1013.5
2023-03-05T11:49:09.058Z,1013.46
2023-03-05T11:50:09.090Z,1013.41
2023-03-05T11:51:09.114Z,1013.44
2023-03-05T11:52:09.049Z,1013.25
2023-03-05T11:53:09.173Z,1013.27
2023-03-05T11:54:09.052Z,1013.24
2023-03-05T11:55:09.074Z,1013.23
2023-03-05T11:56:09.067Z,1013.27
2023-03-05T11:57:09.054Z,1013.25
2023-03-05T11:58:09.053Z,1013.29
2023-03-05T11:59:09.050Z,1013.18
2023-03-05T12:00:09.083Z,1013.22
2023-03-05T12:01:09.055Z,1013.17
2023-03-05T12:02:09.050Z,1013.22
2023-03-05T12:03:09.212Z,1013.12
2023-03-05T12:04:48.645Z,1013.17
2023-03-05T12:05:47.581Z,1013.16
2023-03-05T12:06:47.558Z,1013.13
2023-03-05T12:08:05.551Z,1013.19
2023-03-05T12:09:04.562Z,1013.19
2023-03-05T12:10:04.565Z,1013.16
2023-03-05T12:11:04.551Z,1013.12
2023-03-05T12:12:04.557Z,1013.07
2023-03-05T12:17:04.561Z,1013.17
2023-03-05T12:18:04.549Z,1013.11
2023-03-05T12:19:27.957Z,1013.08
2023-03-05T12:20:26.934Z,1013.02
2023-03-05T12:21:26.858Z,1013.08
2023-03-05T12:22:26.823Z,1013.07
2023-03-05T12:23:26.834Z,1013.02
2023-03-05T12:24:28.370Z,1013.02
2023-03-05T12:25:26.826Z,1013.05